Time;durP1;ratioP1;P1;durP2;ratioP2;P2;SDS_P1;SDS_P2;PMS_P1;PMS_P2;Temp;Humidity;BMP_temperature;BMP_pressure;BME280_temperature;BME280_humidity;BME280_pressure;Samples;Min_cycle;Max_cycle;Signal;HPM_P1;HPM_P2
2022/07/04 00:00:49;;;;;;;11.73;9.10;;;14.10;99.90;;;;;;5003468;28;20041;-94
2022/07/04 00:03:15;;;;;;;12.43;9.43;;;14.00;99.90;;;;;;4971834;28;20053;-93
2022/07/04 00:05:41;;;;;;;10.88;9.27;;;14.00;99.90;;;;;;4985241;28;20514;-94
2022/07/04 00:08:06;;;;;;;11.05;8.25;;;13.90;99.90;;;;;;4986124;28;20389;-94
2022/07/04 00:10:32;;;;;;;10.57;8.63;;;14.00;99.90;;;;;;4979335;28;20035;-94
2022/07/04 00:12:58;;;;;;;10.32;7.82;;;14.00;99.90;;;;;;5002447;28;20186;-95
2022/07/04 00:15:24;;;;;;;10.38;8.18;;;14.00;99.90;;;;;;4996603;28;20126;-94
2022/07/04 00:17:51;;;;;;;10.07;8.15;;;13.90;99.90;;;;;;4984579;28;20034;-94
2022/07/04 00:20:17;;;;;;;10.10;7.72;;;13.90;99.90;;;;;;4983058;28;20116;-95
2022/07/04 00:22:44;;;;;;;10.75;7.47;;;13.80;99.90;;;;;;4973984;28;20129;-95
2022/07/04 00:25:10;;;;;;;9.43;7.95;;;13.80;99.90;;;;;;5004978;28;20050;-94
2022/07/04 00:27:35;;;;;;;10.98;8.27;;;13.70;99.90;;;;;;5004869;28;20088;-95
2022/07/04 00:30:02;;;;;;;11.45;8.55;;;13.70;99.90;;;;;;4984371;28;20045;-95
2022/07/04 00:32:27;;;;;;;12.45;8.40;;;13.70;99.90;;;;;;4986009;28;20125;-95
2022/07/04 00:34:53;;;;;;;10.20;8.40;;;13.70;99.90;;;;;;4987023;28;20054;-95
2022/07/04 00:37:19;;;;;;;11.60;8.32;;;13.70;99.90;;;;;;4970875;28;20057;-95
2022/07/04 00:39:44;;;;;;;11.20;8.60;;;13.70;99.90;;;;;;4987137;28;20044;-95
2022/07/04 00:42:10;;;;;;;11.23;8.68;;;13.70;99.90;;;;;;4999813;28;20042;-94
2022/07/04 00:44:36;;;;;;;12.90;8.68;;;13.60;99.90;;;;;;5000317;28;20052;-95
2022/07/04 00:47:03;;;;;;;10.65;9.07;;;13.60;99.90;;;;;;4982003;28;20054;-94
2022/07/04 00:49:29;;;;;;;10.70;8.65;;;13.60;99.90;;;;;;4984895;28;20117;-95
2022/07/04 00:51:55;;;;;;;12.02;9.27;;;13.60;99.90;;;;;;4986962;28;20034;-95
2022/07/04 00:54:26;;;;;;;11.32;9.40;;;13.50;99.90;;;;;;4961730;28;20447;-95
2022/07/04 00:56:52;;;;;;;10.80;9.52;;;13.50;99.90;;;;;;4994539;28;20050;-96
2022/07/04 00:59:18;;;;;;;11.77;10.10;;;13.50;99.90;;;;;;4983312;28;20034;-94
2022/07/04 01:01:43;;;;;;;10.93;9.32;;;13.50;99.90;;;;;;5000966;28;20471;-95
2022/07/04 01:04:09;;;;;;;11.77;9.32;;;13.40;99.90;;;;;;5002992;28;20465;-94
2022/07/04 01:06:35;;;;;;;11.50;9.77;;;13.50;99.90;;;;;;4986076;28;20756;-94
2022/07/04 01:09:00;;;;;;;11.90;10.50;;;13.40;99.90;;;;;;4978487;28;20044;-95
2022/07/04 01:11:26;;;;;;;13.25;10.43;;;13.40;99.90;;;;;;4976023;28;20103;-94
2022/07/04 01:13:56;;;;;;;12.63;10.10;;;13.40;99.90;;;;;;4983421;28;20099;-94
2022/07/04 01:16:25;;;;;;;14.13;11.70;;;13.40;99.90;;;;;;4977886;28;20515;-94
2022/07/04 01:18:52;;;;;;;12.30;10.73;;;13.40;99.90;;;;;;4962761;28;20057;-95
2022/07/04 01:21:18;;;;;;;13.38;10.90;;;13.40;99.90;;;;;;5004925;28;20056;-95
2022/07/04 01:23:44;;;;;;;12.52;11.20;;;13.40;99.90;;;;;;4966538;28;20034;-95
2022/07/04 01:26:11;;;;;;;11.73;10.15;;;13.40;99.90;;;;;;4984667;28;20089;-95
2022/07/04 01:28:37;;;;;;;13.05;11.07;;;13.40;99.90;;;;;;4980672;28;20050;-95
2022/07/04 01:31:02;;;;;;;13.75;11.35;;;13.40;99.90;;;;;;4967564;28;20130;-94
2022/07/04 01:33:28;;;;;;;13.70;11.25;;;13.30;99.90;;;;;;4985801;28;20110;-95
2022/07/04 01:35:54;;;;;;;12.90;11.40;;;13.40;99.90;;;;;;4969432;28;20042;-95
2022/07/04 01:38:20;;;;;;;15.00;11.70;;;13.30;99.90;;;;;;4991838;28;20078;-94
2022/07/04 01:40:46;;;;;;;12.63;11.32;;;13.30;99.90;;;;;;4963834;28;20125;-94
2022/07/04 01:43:11;;;;;;;13.63;11.05;;;13.30;99.90;;;;;;4963186;28;20048;-96
2022/07/04 01:45:37;;;;;;;13.05;11.13;;;13.30;99.90;;;;;;4963014;28;20050;-95
2022/07/04 01:48:11;;;;;;;13.40;11.10;;;13.30;99.90;;;;;;4969667;28;20049;-94
2022/07/04 01:50:37;;;;;;;14.45;12.07;;;13.30;99.90;;;;;;4982447;28;20042;-94
2022/07/04 01:53:03;;;;;;;13.55;11.27;;;13.30;99.90;;;;;;4968139;28;20187;-95
2022/07/04 01:55:30;;;;;;;13.35;11.95;;;13.30;99.90;;;;;;4986854;28;20038;-94
2022/07/04 01:57:56;;;;;;;12.18;10.88;;;13.30;99.90;;;;;;4979209;28;20098;-95
2022/07/04 02:03:07;;;;;;;14.93;11.55;;;13.30;99.90;;;;;;4984643;28;20054;-93
2022/07/04 02:05:33;;;;;;;12.90;11.23;;;13.20;99.90;;;;;;4966150;28;20097;-94
2022/07/04 02:07:59;;;;;;;14.18;11.38;;;13.20;99.90;;;;;;4968621;28;20045;-94
2022/07/04 02:10:24;;;;;;;14.35;12.85;;;13.10;99.90;;;;;;4970696;28;20053;-94
2022/07/04 02:13:02;;;;;;;14.95;12.95;;;13.20;99.90;;;;;;4968674;28;20128;-94
2022/07/04 02:15:31;;;;;;;14.65;12.75;;;13.20;99.90;;;;;;4964719;28;20053;-95
2022/07/04 02:17:58;;;;;;;13.80;12.10;;;13.10;99.90;;;;;;4972509;28;20041;-94
2022/07/04 02:20:24;;;;;;;16.00;13.95;;;13.10;99.90;;;;;;4994322;28;20110;-94
2022/07/04 02:22:50;;;;;;;16.48;13.80;;;13.10;99.90;;;;;;4969802;28;20049;-94
2022/07/04 02:25:16;;;;;;;16.05;13.75;;;13.10;99.90;;;;;;4975142;28;20046;-94
2022/07/04 02:27:42;;;;;;;14.93;13.30;;;13.10;99.90;;;;;;4980855;28;20042;-95
2022/07/04 02:30:09;;;;;;;15.50;13.85;;;13.10;99.90;;;;;;4992274;28;20053;-94
2022/07/04 02:32:35;;;;;;;14.45;12.63;;;13.10;99.90;;;;;;4970748;28;20046;-94
2022/07/04 02:35:01;;;;;;;16.05;12.32;;;13.10;99.90;;;;;;4973160;28;20050;-94
2022/07/04 02:37:27;;;;;;;14.95;13.10;;;13.10;99.90;;;;;;4998102;28;20038;-96
2022/07/04 02:39:53;;;;;;;14.00;12.45;;;13.10;99.90;;;;;;4977317;28;20114;-94
2022/07/04 02:42:19;;;;;;;15.43;13.32;;;13.10;99.90;;;;;;4977139;28;20523;-94
2022/07/04 02:44:45;;;;;;;14.15;12.63;;;13.10;99.90;;;;;;4974707;28;20053;-95
2022/07/04 02:47:11;;;;;;;15.18;13.57;;;13.00;99.90;;;;;;4981636;28;20068;-94
2022/07/04 02:49:37;;;;;;;14.52;13.02;;;13.10;99.90;;;;;;4981509;28;20050;-94
2022/07/04 02:52:02;;;;;;;14.18;11.88;;;13.10;99.90;;;;;;4983117;28;20069;-94
2022/07/04 02:54:28;;;;;;;12.70;11.27;;;13.10;99.90;;;;;;4977050;28;20101;-95
2022/07/04 02:56:54;;;;;;;15.82;12.95;;;13.00;99.90;;;;;;4972887;28;20462;-94
2022/07/04 02:59:19;;;;;;;14.73;13.20;;;13.00;99.90;;;;;;4990566;28;20124;-94
2022/07/04 03:01:45;;;;;;;15.05;13.02;;;13.00;99.90;;;;;;4983625;28;20038;-95
2022/07/04 03:04:11;;;;;;;14.70;13.10;;;13.00;99.90;;;;;;4962194;28;20569;-94
2022/07/04 03:06:36;;;;;;;14.55;13.05;;;13.00;99.90;;;;;;4973005;28;20494;-96
2022/07/04 03:09:02;;;;;;;15.30;13.73;;;13.00;99.90;;;;;;4993230;28;20486;-94
2022/07/04 03:11:28;;;;;;;15.25;13.52;;;12.90;99.90;;;;;;5001565;28;20046;-95
2022/07/04 03:13:53;;;;;;;15.23;13.68;;;12.90;99.90;;;;;;4966183;28;20057;-95
2022/07/04 03:16:19;;;;;;;16.55;14.27;;;12.90;99.90;;;;;;4994497;28;20569;-95
2022/07/04 03:18:45;;;;;;;17.10;14.23;;;12.80;99.90;;;;;;5006302;28;20038;-95
2022/07/04 03:21:11;;;;;;;16.67;14.75;;;12.90;99.90;;;;;;4986186;28;20052;-95
2022/07/04 03:23:36;;;;;;;17.02;14.43;;;12.90;99.90;;;;;;4986352;28;20053;-95
2022/07/04 03:26:02;;;;;;;15.88;14.27;;;12.90;99.90;;;;;;4989277;28;20470;-95
2022/07/04 03:28:28;;;;;;;15.35;13.75;;;12.90;99.90;;;;;;4990876;28;20038;-94
2022/07/04 03:30:54;;;;;;;18.02;15.35;;;12.90;99.90;;;;;;4976937;28;20116;-95
2022/07/04 03:33:20;;;;;;;16.88;15.00;;;12.90;99.90;;;;;;4989687;28;20129;-94
2022/07/04 03:35:46;;;;;;;18.40;15.48;;;13.00;99.90;;;;;;4977200;28;20041;-94
2022/07/04 03:38:12;;;;;;;17.23;15.40;;;12.80;99.90;;;;;;4973900;28;20125;-94
2022/07/04 03:40:38;;;;;;;17.60;15.73;;;12.90;99.90;;;;;;4986145;28;20046;-94
2022/07/04 03:43:06;;;;;;;17.77;15.90;;;12.90;99.90;;;;;;4976338;28;20390;-94
2022/07/04 03:45:32;;;;;;;16.63;14.95;;;12.90;99.90;;;;;;4967317;28;20057;-94
2022/07/04 03:47:58;;;;;;;18.63;16.73;;;12.90;99.90;;;;;;5002908;28;20061;-95
2022/07/04 03:50:24;;;;;;;17.58;15.05;;;13.00;99.90;;;;;;4990285;28;20376;-94
2022/07/04 03:52:50;;;;;;;17.88;15.98;;;13.00;99.90;;;;;;4986378;28;20045;-94
2022/07/04 03:55:16;;;;;;;17.48;15.60;;;13.00;99.90;;;;;;4989697;28;20618;-95
2022/07/04 03:57:41;;;;;;;18.45;16.55;;;13.00;99.90;;;;;;4970900;28;20046;-95
2022/07/04 04:00:09;;;;;;;17.17;15.48;;;13.00;99.90;;;;;;4978029;28;21435;-95
2022/07/04 04:02:36;;;;;;;17.35;15.40;;;13.10;99.90;;;;;;4993255;28;20164;-94
2022/07/04 04:07:46;;;;;;;15.93;14.18;;;13.10;99.90;;;;;;4984653;28;20053;-94
2022/07/04 04:10:12;;;;;;;17.33;15.52;;;13.30;99.90;;;;;;4994836;28;20077;-95
2022/07/04 04:12:38;;;;;;;18.05;15.40;;;13.20;99.90;;;;;;4969447;28;20050;-95
2022/07/04 04:15:04;;;;;;;17.30;15.52;;;13.20;99.90;;;;;;4983969;28;20109;-95
2022/07/04 04:17:29;;;;;;;16.25;14.55;;;13.20;99.90;;;;;;4979732;28;20050;-95
2022/07/04 04:19:56;;;;;;;17.13;15.32;;;13.30;99.90;;;;;;4999905;28;20479;-96
2022/07/04 04:22:22;;;;;;;16.70;15.10;;;13.30;99.90;;;;;;4969079;28;20050;-96
2022/07/04 04:24:48;;;;;;;16.70;15.00;;;13.30;99.90;;;;;;4989821;28;20038;-96
2022/07/04 04:27:13;;;;;;;16.90;15.07;;;13.40;99.90;;;;;;4968575;28;20045;-96
2022/07/04 04:29:39;;;;;;;17.88;15.50;;;13.40;99.90;;;;;;4969556;28;20038;-96
2022/07/04 04:32:05;;;;;;;17.27;15.48;;;13.50;99.90;;;;;;4965241;28;20393;-96
2022/07/04 04:34:31;;;;;;;17.35;15.55;;;13.50;99.90;;;;;;4961995;28;20052;-96
2022/07/04 04:36:56;;;;;;;18.35;16.45;;;13.50;99.90;;;;;;4970616;28;20487;-96
2022/07/04 04:39:22;;;;;;;18.98;17.00;;;13.60;99.90;;;;;;4971050;28;20125;-96
2022/07/04 04:41:48;;;;;;;18.20;16.30;;;13.70;99.90;;;;;;4959901;28;20466;-96
2022/07/04 04:44:13;;;;;;;19.02;16.25;;;13.70;99.90;;;;;;4980104;28;20054;-96
2022/07/04 04:46:39;;;;;;;19.05;17.00;;;13.80;99.90;;;;;;4987974;28;20105;-96
2022/07/04 04:49:05;;;;;;;17.83;15.35;;;13.80;99.90;;;;;;4986558;28;20091;-95
2022/07/04 04:51:31;;;;;;;16.35;14.55;;;13.90;99.90;;;;;;4968505;28;20089;-95
2022/07/04 04:53:56;;;;;;;18.67;15.07;;;14.00;99.90;;;;;;4981728;28;20430;-95
2022/07/04 04:56:22;;;;;;;16.05;13.55;;;14.10;99.90;;;;;;4959089;28;20046;-95
2022/07/04 04:58:48;;;;;;;14.55;13.05;;;14.10;99.90;;;;;;4983384;28;20077;-94
2022/07/04 05:01:13;;;;;;;14.95;13.43;;;14.20;99.90;;;;;;4987036;28;20094;-95
2022/07/04 05:03:39;;;;;;;14.68;12.88;;;14.20;99.90;;;;;;4970888;28;20347;-93
2022/07/04 05:06:05;;;;;;;15.55;13.27;;;14.30;99.90;;;;;;4978911;28;20046;-93
2022/07/04 05:08:30;;;;;;;16.30;13.07;;;14.40;99.90;;;;;;4979803;28;20078;-94
2022/07/04 05:10:58;;;;;;;14.18;12.68;;;14.50;99.90;;;;;;4978298;28;20038;-95
2022/07/04 05:13:24;;;;;;;15.93;13.00;;;14.50;99.90;;;;;;4983753;28;20113;-93
2022/07/04 05:15:51;;;;;;;16.00;12.48;;;14.50;99.90;;;;;;4980899;28;20053;-94
2022/07/04 05:18:16;;;;;;;15.45;12.57;;;14.50;99.90;;;;;;4982655;28;20121;-93
2022/07/04 05:20:42;;;;;;;13.98;12.52;;;14.60;99.90;;;;;;4959492;28;20129;-93
2022/07/04 05:23:08;;;;;;;14.63;12.35;;;14.60;99.90;;;;;;4961374;28;20046;-94
2022/07/04 05:25:33;;;;;;;16.27;12.85;;;14.80;99.90;;;;;;4974621;28;20078;-92
2022/07/04 05:27:59;;;;;;;15.77;12.88;;;14.90;99.90;;;;;;4979609;28;20038;-94
2022/07/04 05:30:25;;;;;;;16.35;12.93;;;15.00;99.90;;;;;;4977458;28;20042;-93
2022/07/04 05:32:51;;;;;;;15.50;12.50;;;14.90;99.90;;;;;;4998953;28;20431;-95
2022/07/04 05:35:17;;;;;;;14.60;12.32;;;15.00;99.90;;;;;;4965865;28;20125;-92
2022/07/04 05:37:43;;;;;;;14.65;12.50;;;15.10;99.90;;;;;;4982283;28;20048;-92
2022/07/04 05:40:09;;;;;;;14.68;12.55;;;15.10;99.90;;;;;;5000384;28;20042;-93
2022/07/04 05:42:35;;;;;;;16.50;12.38;;;15.20;99.90;;;;;;4983416;28;20042;-93
2022/07/04 05:45:01;;;;;;;14.75;11.40;;;15.30;99.90;;;;;;4980352;28;20148;-93
2022/07/04 05:47:27;;;;;;;13.75;11.80;;;15.30;99.90;;;;;;4981629;28;20066;-93
2022/07/04 05:49:52;;;;;;;14.32;11.93;;;15.40;99.90;;;;;;4997656;28;20081;-93
2022/07/04 05:52:18;;;;;;;15.15;11.20;;;15.50;99.90;;;;;;4987104;28;20499;-92
2022/07/04 05:54:44;;;;;;;14.45;12.00;;;15.60;99.90;;;;;;4967342;28;20078;-93
2022/07/04 05:57:10;;;;;;;14.18;11.48;;;15.70;99.90;;;;;;4982284;28;20050;-92
2022/07/04 05:59:36;;;;;;;12.93;11.25;;;15.80;99.90;;;;;;4979255;28;20392;-94
2022/07/04 06:02:02;;;;;;;13.05;11.10;;;15.90;99.90;;;;;;5002280;28;20056;-94
2022/07/04 06:04:27;;;;;;;13.45;11.15;;;16.00;99.90;;;;;;4992365;28;20124;-92
2022/07/04 06:06:53;;;;;;;12.82;10.05;;;16.10;99.90;;;;;;4996850;28;20499;-93
2022/07/04 06:09:19;;;;;;;13.30;9.82;;;16.30;99.90;;;;;;4978196;28;20559;-92
2022/07/04 06:11:44;;;;;;;12.27;9.07;;;16.30;99.90;;;;;;4970442;28;20042;-94
2022/07/04 06:14:10;;;;;;;11.13;9.15;;;16.30;99.90;;;;;;4983859;28;20050;-92
2022/07/04 06:16:36;;;;;;;15.73;10.00;;;16.30;99.90;;;;;;5000347;28;20135;-92
2022/07/04 06:19:02;;;;;;;12.45;9.32;;;16.40;99.90;;;;;;4961900;28;20046;-91
2022/07/04 06:21:28;;;;;;;10.90;9.25;;;16.40;99.90;;;;;;4998598;28;20410;-93
2022/07/04 06:23:53;;;;;;;14.27;9.70;;;16.50;99.90;;;;;;4969857;28;20034;-92
2022/07/04 06:26:19;;;;;;;11.82;8.88;;;16.60;99.90;;;;;;4988468;28;20038;-92
2022/07/04 06:28:45;;;;;;;14.48;10.38;;;16.80;99.90;;;;;;5001634;28;20399;-91
2022/07/04 06:31:11;;;;;;;12.88;9.80;;;16.90;99.90;;;;;;4970627;28;20057;-92
2022/07/04 06:35:44;;;;;;;12.60;9.07;;;16.90;99.90;;;;;;4989062;28;20085;-92
2022/07/04 06:36:23;;;;;;;11.98;9.18;;;17.00;99.90;;;;;;5000010;28;20045;-89
2022/07/04 06:38:49;;;;;;;14.80;9.32;;;17.00;99.90;;;;;;5005983;28;20042;-86
2022/07/04 06:41:15;;;;;;;13.95;9.60;;;17.20;99.90;;;;;;5002036;28;20096;-88
2022/07/04 06:43:40;;;;;;;12.00;9.32;;;17.20;99.90;;;;;;4973769;28;20042;-85
2022/07/04 06:46:06;;;;;;;12.57;9.15;;;17.30;99.90;;;;;;4975408;28;20053;-86
2022/07/04 06:48:32;;;;;;;12.40;8.73;;;17.40;99.90;;;;;;4991142;28;20053;-86
2022/07/04 06:50:57;;;;;;;14.43;8.93;;;17.40;99.90;;;;;;4984276;28;20050;-87
2022/07/04 06:53:23;;;;;;;12.93;8.60;;;17.50;99.90;;;;;;5002196;28;20058;-86
2022/07/04 06:55:49;;;;;;;10.70;7.65;;;17.50;99.90;;;;;;4979271;28;20042;-87
2022/07/04 06:58:15;;;;;;;13.63;8.35;;;17.60;99.90;;;;;;4983992;28;20050;-87
2022/07/04 07:00:41;;;;;;;14.65;8.52;;;17.60;99.90;;;;;;4964692;28;20037;-86
2022/07/04 07:03:07;;;;;;;15.57;9.43;;;17.70;99.90;;;;;;4970026;28;20042;-87
2022/07/04 07:05:36;;;;;;;12.48;8.50;;;17.90;99.90;;;;;;4984551;28;20061;-86
2022/07/04 07:08:05;;;;;;;13.15;8.48;;;17.80;99.90;;;;;;4981148;28;20058;-89
2022/07/04 07:10:32;;;;;;;14.77;8.05;;;17.90;99.90;;;;;;5002680;28;20049;-86
2022/07/04 07:12:58;;;;;;;13.02;8.43;;;17.90;99.90;;;;;;5001905;28;20108;-88
2022/07/04 07:15:24;;;;;;;11.80;7.80;;;17.90;99.90;;;;;;4997136;28;20061;-85
2022/07/04 07:17:52;;;;;;;12.02;7.88;;;17.90;99.90;;;;;;4983926;28;20046;-86
2022/07/04 07:20:18;;;;;;;11.85;7.63;;;18.00;99.90;;;;;;4997138;28;20038;-87
2022/07/04 07:22:44;;;;;;;15.05;8.07;;;18.10;99.90;;;;;;4983481;28;20042;-86
2022/07/04 07:25:10;;;;;;;11.65;7.53;;;18.10;99.90;;;;;;5006682;28;20172;-87
2022/07/04 07:27:37;;;;;;;12.98;8.15;;;18.20;99.90;;;;;;4988540;28;20042;-86
2022/07/04 07:30:03;;;;;;;13.05;8.60;;;18.30;99.90;;;;;;4979837;28;20054;-87
2022/07/04 07:32:29;;;;;;;11.40;7.88;;;18.40;99.90;;;;;;4998553;28;20059;-88
2022/07/04 07:34:54;;;;;;;12.38;7.60;;;18.50;99.90;;;;;;4980294;28;20045;-87
2022/07/04 07:37:21;;;;;;;11.57;8.05;;;18.70;99.90;;;;;;4981672;28;20037;-87
2022/07/04 07:39:48;;;;;;;11.75;8.68;;;18.80;99.90;;;;;;5002861;28;20418;-88
2022/07/04 07:42:14;;;;;;;11.90;8.20;;;18.90;99.90;;;;;;4997272;28;20045;-87
2022/07/04 07:44:39;;;;;;;14.38;8.63;;;18.90;99.90;;;;;;4963290;28;20423;-87
2022/07/04 07:47:05;;;;;;;13.70;8.98;;;18.90;99.90;;;;;;4982549;28;20053;-89
2022/07/04 07:49:31;;;;;;;13.50;8.23;;;19.00;99.90;;;;;;4993824;28;20479;-89
2022/07/04 07:51:56;;;;;;;12.65;8.35;;;19.20;99.90;;;;;;4965867;28;20520;-90
2022/07/04 07:54:22;;;;;;;11.00;7.70;;;19.20;99.90;;;;;;4967924;28;20038;-89
2022/07/04 07:56:48;;;;;;;12.60;8.52;;;19.30;99.90;;;;;;4978192;28;20407;-89
2022/07/04 07:59:13;;;;;;;13.57;7.57;;;19.30;99.90;;;;;;4983034;28;20045;-88
2022/07/04 08:01:39;;;;;;;12.52;6.45;;;19.30;99.90;;;;;;4998775;28;20056;-89
2022/07/04 08:06:49;;;;;;;11.07;5.60;;;19.30;99.90;;;;;;4986119;28;20061;-90
2022/07/04 08:09:15;;;;;;;10.45;5.18;;;19.40;99.90;;;;;;4982236;28;20046;-90
2022/07/04 08:11:42;;;;;;;11.10;5.25;;;19.40;99.90;;;;;;4998538;28;20041;-86
2022/07/04 08:14:08;;;;;;;10.65;4.80;;;19.40;99.90;;;;;;4984473;28;20050;-88
2022/07/04 08:16:34;;;;;;;9.98;4.93;;;19.20;99.90;;;;;;4987411;28;20117;-87
2022/07/04 08:19:00;;;;;;;13.00;5.45;;;19.10;99.90;;;;;;4975287;28;20042;-86
2022/07/04 08:21:26;;;;;;;21.55;8.07;;;19.00;99.90;;;;;;5000589;28;20076;-87
2022/07/04 08:23:52;;;;;;;12.55;5.60;;;18.90;99.90;;;;;;4974820;28;20042;-88
2022/07/04 08:26:21;;;;;;;9.88;5.35;;;18.80;99.90;;;;;;5000462;28;20396;-88
2022/07/04 08:28:47;;;;;;;9.10;4.65;;;18.70;99.90;;;;;;4993640;28;20039;-87
2022/07/04 08:31:13;;;;;;;10.40;4.63;;;18.60;99.90;;;;;;4995574;28;20419;-89
2022/07/04 08:33:38;;;;;;;9.38;3.45;;;18.60;99.90;;;;;;5001255;28;20050;-88
2022/07/04 08:36:04;;;;;;;9.63;3.50;;;18.70;99.90;;;;;;4991174;28;20339;-88
2022/07/04 08:38:30;;;;;;;8.75;3.38;;;18.80;99.90;;;;;;4981459;28;20081;-90
2022/07/04 08:40:58;;;;;;;8.32;3.00;;;18.90;99.90;;;;;;4980656;28;20050;-91
2022/07/04 08:43:26;;;;;;;9.27;3.55;;;19.00;99.90;;;;;;4965404;28;20056;-88
2022/07/04 08:45:54;;;;;;;8.90;3.33;;;19.10;99.90;;;;;;5001788;28;20048;-94
2022/07/04 08:48:25;;;;;;;7.90;3.17;;;19.30;99.90;;;;;;4995620;28;20084;-93
2022/07/04 08:50:56;;;;;;;8.38;4.10;;;19.50;99.90;;;;;;5002334;28;20037;-96
2022/07/04 08:53:26;;;;;;;6.88;3.20;;;19.60;99.90;;;;;;4969969;28;20427;-94
2022/07/04 08:58:38;;;;;;;8.55;3.13;;;19.60;99.90;;;;;;4983779;28;20050;-91
2022/07/04 09:01:39;;;;;;;7.97;2.83;;;19.60;99.90;;;;;;4976955;28;20073;-93
2022/07/04 09:03:59;;;;;;;7.03;2.35;;;19.70;99.90;;;;;;4977830;28;20046;-96
2022/07/04 09:06:26;;;;;;;6.20;2.28;;;19.90;99.90;;;;;;5000402;28;20045;-92
2022/07/04 09:08:53;;;;;;;6.47;2.40;;;20.00;99.90;;;;;;4980983;28;20045;-93
2022/07/04 09:11:19;;;;;;;6.40;2.47;;;20.10;99.90;;;;;;4980097;28;20065;-95
2022/07/04 09:13:44;;;;;;;5.97;2.38;;;20.10;99.90;;;;;;4963156;28;20041;-92
2022/07/04 09:16:10;;;;;;;6.13;2.00;;;20.20;99.90;;;;;;4995878;28;20057;-92
2022/07/04 09:18:36;;;;;;;6.93;2.50;;;20.20;99.90;;;;;;4985901;28;20394;-94
2022/07/04 09:21:05;;;;;;;8.20;2.40;;;20.10;99.90;;;;;;4985829;28;20053;-91
2022/07/04 09:23:33;;;;;;;4.82;2.10;;;20.10;99.90;;;;;;4995013;28;20093;-87
2022/07/04 09:26:10;;;;;;;8.77;2.85;;;20.00;99.90;;;;;;4991389;28;20039;-87
2022/07/04 09:28:38;;;;;;;13.30;2.75;;;19.90;99.90;;;;;;5002815;28;20049;-88
2022/07/04 09:31:17;;;;;;;7.80;2.30;;;19.80;99.90;;;;;;5003420;28;20600;-88
2022/07/04 09:33:44;;;;;;;7.18;2.60;;;19.70;99.90;;;;;;4999321;28;20042;-89
2022/07/04 09:36:14;;;;;;;6.32;2.40;;;19.60;99.90;;;;;;5002703;28;20620;-88
2022/07/04 09:38:40;;;;;;;5.95;2.30;;;19.60;99.90;;;;;;4987918;28;20050;-88
2022/07/04 09:44:19;;;;;;;7.07;2.30;;;19.50;99.90;;;;;;4986074;28;20041;-87
2022/07/04 09:46:45;;;;;;;6.50;2.45;;;19.50;99.90;;;;;;4965979;28;20050;-88
2022/07/04 09:49:11;;;;;;;6.97;2.53;;;19.50;99.90;;;;;;5002801;28;20048;-93
2022/07/04 09:51:38;;;;;;;7.15;2.60;;;19.40;99.90;;;;;;5001837;28;20368;-87
2022/07/04 09:54:14;;;;;;;5.90;2.28;;;19.40;99.90;;;;;;4959709;28;20053;-87
2022/07/04 09:56:44;;;;;;;6.20;2.15;;;19.50;99.90;;;;;;4998989;28;20051;-88
2022/07/04 09:59:10;;;;;;;5.05;2.30;;;19.60;99.90;;;;;;5002398;28;20441;-89
2022/07/04 10:01:36;;;;;;;7.38;3.60;;;19.80;99.90;;;;;;4982543;28;20038;-88
2022/07/04 10:04:03;;;;;;;5.93;2.85;;;19.90;99.90;;;;;;4977736;28;20054;-89
2022/07/04 10:06:32;;;;;;;6.03;2.10;;;20.00;99.90;;;;;;4988650;28;20117;-91
2022/07/04 10:09:13;;;;;;;4.90;1.90;;;19.90;99.90;;;;;;5004235;28;20050;-88
2022/07/04 10:11:41;;;;;;;5.60;2.30;;;19.80;99.90;;;;;;5003268;28;20065;-90
2022/07/04 10:14:08;;;;;;;6.60;1.85;;;19.80;99.90;;;;;;4999571;28;20077;-92
2022/07/04 10:16:35;;;;;;;6.40;2.40;;;19.80;99.90;;;;;;5006247;28;20049;-89
2022/07/04 10:19:01;;;;;;;6.68;2.22;;;19.90;99.90;;;;;;5001630;28;20038;-92
2022/07/04 10:21:28;;;;;;;6.63;2.35;;;20.10;99.90;;;;;;4987644;28;20065;-93
2022/07/04 10:23:53;;;;;;;5.78;1.90;;;20.20;99.90;;;;;;4990149;28;20056;-95
2022/07/04 10:26:22;;;;;;;6.45;2.30;;;20.30;99.90;;;;;;4994221;28;20057;-96
2022/07/04 10:28:51;;;;;;;7.00;2.28;;;20.20;99.90;;;;;;5006398;28;20042;-89
2022/07/04 10:31:18;;;;;;;6.15;2.20;;;20.10;99.90;;;;;;4987739;28;20546;-90
2022/07/04 10:33:45;;;;;;;5.40;2.20;;;20.10;99.90;;;;;;4976669;28;20066;-90
2022/07/04 10:36:21;;;;;;;6.22;1.90;;;20.00;99.90;;;;;;4997677;28;20053;-89
2022/07/04 10:38:53;;;;;;;6.07;2.05;;;20.00;99.90;;;;;;4998029;28;20050;-90
2022/07/04 10:41:21;;;;;;;3.88;1.60;;;20.00;99.90;;;;;;4996251;28;20501;-91
2022/07/04 10:44:00;;;;;;;3.85;1.90;;;20.10;99.90;;;;;;5001177;28;20046;-89
2022/07/04 10:46:46;;;;;;;5.07;2.10;;;20.10;99.90;;;;;;4987011;28;20057;-91
2022/07/04 10:49:14;;;;;;;5.25;1.80;;;20.10;99.90;;;;;;5000998;28;20038;-90
2022/07/04 10:52:12;;;;;;;6.25;2.05;;;20.20;99.90;;;;;;4989985;28;20086;-91
2022/07/04 10:54:40;;;;;;;5.63;2.45;;;20.30;99.90;;;;;;4987955;28;20067;-90
2022/07/04 10:57:20;;;;;;;5.97;2.10;;;20.30;99.90;;;;;;4985749;28;20375;-91
2022/07/04 10:59:56;;;;;;;8.95;2.40;;;20.30;99.90;;;;;;4998940;28;20053;-90
2022/07/04 11:02:29;;;;;;;6.47;2.30;;;20.20;99.90;;;;;;5000004;28;20050;-91
2022/07/04 11:04:55;;;;;;;4.32;1.90;;;20.10;99.90;;;;;;4996299;28;20050;-90
2022/07/04 11:07:40;;;;;;;5.07;2.05;;;20.20;99.90;;;;;;4979103;28;20058;-93
2022/07/04 11:10:12;;;;;;;5.18;2.50;;;20.30;99.90;;;;;;4981998;28;20053;-95
2022/07/04 11:12:58;;;;;;;5.38;2.30;;;20.40;99.90;;;;;;4968330;28;20052;-94
2022/07/04 11:15:27;;;;;;;4.22;2.40;;;20.40;99.90;;;;;;4961411;28;20150;-93
2022/07/04 11:17:55;;;;;;;6.88;2.45;;;20.40;99.90;;;;;;5003423;28;20390;-94
2022/07/04 11:20:23;;;;;;;7.07;3.00;;;20.30;99.90;;;;;;4976619;28;20049;-94
2022/07/04 11:22:49;;;;;;;7.22;2.83;;;20.30;99.90;;;;;;4984045;28;20069;-94
2022/07/04 11:25:15;;;;;;;6.72;2.67;;;20.20;99.90;;;;;;4983783;28;20049;-95
2022/07/04 11:27:41;;;;;;;5.75;2.30;;;20.20;99.90;;;;;;4982148;28;20065;-96
2022/07/04 11:30:09;;;;;;;5.25;2.40;;;20.20;99.90;;;;;;5001725;28;20056;-93
2022/07/04 11:32:36;;;;;;;5.82;2.03;;;20.20;99.90;;;;;;5006148;28;20062;-96
2022/07/04 11:35:04;;;;;;;5.55;2.33;;;20.30;99.90;;;;;;5010204;28;20042;-95
2022/07/04 11:37:29;;;;;;;3.85;2.13;;;20.40;99.90;;;;;;4984117;28;20043;-93
2022/07/04 11:45:53;;;;;;;4.30;1.70;;;20.80;99.90;;;;;;4997671;28;20066;-91
2022/07/04 11:48:26;;;;;;;4.20;1.52;;;20.90;99.90;;;;;;5003997;28;20057;-96
2022/07/04 11:50:52;;;;;;;3.22;1.40;;;21.00;99.90;;;;;;4981066;28;20072;-92
2022/07/04 11:53:18;;;;;;;2.88;1.35;;;21.00;99.90;;;;;;4968757;28;20077;-96
2022/07/04 11:55:58;;;;;;;5.53;1.42;;;21.10;99.90;;;;;;4991571;28;20485;-96
2022/07/04 11:58:26;;;;;;;3.60;1.42;;;21.20;99.90;;;;;;4999740;28;20054;-96
2022/07/04 12:00:52;;;;;;;2.80;1.30;;;21.20;99.90;;;;;;4984141;28;20060;-93
2022/07/04 12:03:18;;;;;;;3.58;1.30;;;21.30;99.90;;;;;;4981609;28;20495;-91
2022/07/04 12:05:46;;;;;;;2.95;1.40;;;21.20;99.90;;;;;;5003989;28;20046;-92
2022/07/04 12:08:11;;;;;;;3.72;1.48;;;21.20;99.90;;;;;;4998910;28;20042;-92
2022/07/04 12:10:37;;;;;;;3.75;1.30;;;21.10;99.90;;;;;;4985316;28;20057;-94
2022/07/04 12:13:09;;;;;;;3.40;1.40;;;21.10;99.90;;;;;;4983541;28;20112;-90
2022/07/04 12:15:37;;;;;;;4.97;1.50;;;21.10;99.90;;;;;;4998202;28;20050;-91
2022/07/04 12:18:05;;;;;;;6.25;1.67;;;21.00;99.90;;;;;;4985237;28;20053;-90
2022/07/04 12:20:31;;;;;;;4.00;1.50;;;21.00;99.90;;;;;;4966297;28;20046;-96
2022/07/04 12:22:59;;;;;;;4.75;1.40;;;20.90;99.90;;;;;;4979672;28;20057;-93
2022/07/04 12:25:39;;;;;;;3.97;1.92;;;20.90;99.90;;;;;;4983023;28;20046;-95
2022/07/04 12:28:12;;;;;;;4.15;1.40;;;20.90;99.90;;;;;;4982983;28;20080;-93
2022/07/04 12:30:47;;;;;;;5.82;1.55;;;20.90;99.90;;;;;;4986119;28;20046;-95
2022/07/04 12:33:12;;;;;;;4.13;1.25;;;20.90;99.90;;;;;;4996595;28;20046;-93
2022/07/04 12:36:06;;;;;;;4.30;1.40;;;20.90;99.90;;;;;;4997576;28;20380;-91
2022/07/04 12:38:36;;;;;;;6.93;1.50;;;20.90;99.90;;;;;;4987518;28;20065;-93
2022/07/04 12:41:15;;;;;;;3.78;1.50;;;20.80;99.90;;;;;;4978488;28;20049;-89
2022/07/04 12:43:43;;;;;;;3.88;1.25;;;20.80;99.90;;;;;;4985269;28;20066;-94
2022/07/04 12:46:25;;;;;;;3.22;1.13;;;20.80;99.90;;;;;;5000323;28;20054;-90
2022/07/04 12:48:52;;;;;;;3.35;1.00;;;20.90;99.90;;;;;;5001796;28;20262;-90
2022/07/04 12:51:24;;;;;;;2.20;0.98;;;20.80;99.90;;;;;;5001170;28;20399;-93
2022/07/04 12:53:51;;;;;;;3.83;1.10;;;20.80;99.90;;;;;;4983898;28;20112;-96
2022/07/04 12:56:41;;;;;;;2.83;0.90;;;20.70;99.90;;;;;;4984736;28;20068;-89